createdAt,value
2022-09-28T00:01:59.946Z,1.70
2022-09-28T00:04:26.783Z,1.58
2022-09-28T00:06:53.508Z,1.42
2022-09-28T00:09:20.252Z,1.45
2022-09-28T00:11:47.075Z,1.70
2022-09-28T00:14:14.256Z,1.83
2022-09-28T00:16:43.451Z,1.45
2022-09-28T00:19:11.065Z,1.50
2022-09-28T00:21:39.039Z,1.60
2022-09-28T00:24:12.625Z,1.20
2022-09-28T00:26:44.309Z,1.88
2022-09-28T00:29:16.805Z,1.50
2022-09-28T00:31:43.672Z,1.23
2022-09-28T00:34:10.484Z,1.55
2022-09-28T00:36:37.257Z,1.40
2022-09-28T00:39:07.607Z,1.40
2022-09-28T00:41:34.660Z,1.55
2022-09-28T00:44:26.401Z,1.33
2022-09-28T00:47:07.527Z,1.70
2022-09-28T00:50:09.039Z,1.50
2022-09-28T00:53:01.838Z,1.33
2022-09-28T00:55:40.841Z,1.55
2022-09-28T00:58:08.962Z,1.50
2022-09-28T01:00:35.759Z,1.40
2022-09-28T01:03:02.492Z,1.80
2022-09-28T01:05:29.514Z,1.30
2022-09-28T01:07:56.431Z,1.85
2022-09-28T01:10:23.214Z,1.50
2022-09-28T01:12:49.911Z,1.60
2022-09-28T01:15:16.779Z,1.00
2022-09-28T01:18:11.756Z,1.42
2022-09-28T01:21:05.329Z,1.30
2022-09-28T01:23:47.825Z,1.33
2022-09-28T01:26:38.925Z,1.30
2022-09-28T01:29:33.479Z,1.40
2022-09-28T01:32:14.125Z,1.52
2022-09-28T01:34:59.593Z,1.50
2022-09-28T01:37:32.385Z,1.00
2022-09-28T01:39:59.108Z,1.02
2022-09-28T01:42:28.514Z,1.38
2022-09-28T01:44:56.865Z,1.60
2022-09-28T01:47:24.420Z,1.40
2022-09-28T01:49:58.055Z,1.40
2022-09-28T01:52:31.711Z,1.35
2022-09-28T01:55:03.075Z,1.20
2022-09-28T01:58:09.955Z,1.00
2022-09-28T02:00:36.678Z,1.42
2022-09-28T02:03:19.262Z,1.00
2022-09-28T02:05:55.522Z,1.10
2022-09-28T02:08:45.931Z,1.40
2022-09-28T02:11:17.039Z,1.38
2022-09-28T02:13:48.688Z,1.38
2022-09-28T02:16:32.507Z,1.35
2022-09-28T02:18:59.274Z,1.33
2022-09-28T02:21:43.479Z,1.08
2022-09-28T02:24:21.562Z,1.30
2022-09-28T02:26:48.501Z,1.40
2022-09-28T02:29:15.380Z,1.17
2022-09-28T02:31:42.295Z,1.20
2022-09-28T02:34:09.206Z,0.95
2022-09-28T02:36:35.950Z,1.58
2022-09-28T02:39:02.726Z,0.93
2022-09-28T02:42:26.744Z,1.20
2022-09-28T02:45:25.258Z,1.30
2022-09-28T02:48:02.352Z,1.15
2022-09-28T02:50:52.760Z,1.08
2022-09-28T02:53:51.670Z,1.00
2022-09-28T02:56:44.819Z,1.20
2022-09-28T02:59:17.550Z,1.52
2022-09-28T03:02:07.872Z,1.30
2022-09-28T03:04:39.845Z,1.30
2022-09-28T03:07:37.024Z,1.13
2022-09-28T03:10:11.623Z,1.20
2022-09-28T03:12:38.407Z,1.05
2022-09-28T03:15:11.212Z,1.20
2022-09-28T03:17:37.962Z,1.20
2022-09-28T03:20:05.355Z,1.30
2022-09-28T03:22:32.066Z,1.10
2022-09-28T03:24:59.037Z,1.13
2022-09-28T03:27:26.055Z,1.25
2022-09-28T03:29:52.752Z,1.02
2022-09-28T03:32:19.487Z,1.20
2022-09-28T03:34:46.259Z,1.00
2022-09-28T03:37:12.981Z,1.08
2022-09-28T03:39:39.696Z,1.23
2022-09-28T03:42:06.461Z,1.10
2022-09-28T03:44:33.196Z,1.10
2022-09-28T03:47:00.216Z,1.00
2022-09-28T03:49:26.922Z,0.95
2022-09-28T03:51:53.649Z,0.90
2022-09-28T03:54:20.433Z,0.90
2022-09-28T03:56:47.138Z,1.10
2022-09-28T03:59:13.970Z,1.02
2022-09-28T04:01:40.835Z,1.15
2022-09-28T04:04:10.930Z,1.02
2022-09-28T04:06:37.625Z,1.23
2022-09-28T04:09:04.521Z,1.20
2022-09-28T04:11:43.036Z,1.02
2022-09-28T04:14:18.816Z,1.00
2022-09-28T04:16:48.091Z,1.08
2022-09-28T04:19:15.440Z,1.02
2022-09-28T04:21:42.268Z,1.00
2022-09-28T04:24:10.306Z,1.10
2022-09-28T04:26:37.169Z,0.80
2022-09-28T04:29:16.218Z,0.93
2022-09-28T04:31:47.381Z,0.90
2022-09-28T04:34:17.230Z,0.95
2022-09-28T04:36:44.816Z,0.98
2022-09-28T04:39:12.633Z,1.00
2022-09-28T04:41:39.642Z,0.90
2022-09-28T04:44:06.472Z,1.30
2022-09-28T04:46:33.736Z,1.00
2022-09-28T04:49:01.300Z,1.17
2022-09-28T04:51:31.047Z,1.30
2022-09-28T04:53:57.762Z,0.90
2022-09-28T04:56:24.509Z,0.93
2022-09-28T04:58:52.845Z,0.98
2022-09-28T05:01:23.368Z,0.93
2022-09-28T05:03:51.080Z,1.10
2022-09-28T05:06:17.954Z,0.90
2022-09-28T05:08:46.944Z,1.13
2022-09-28T05:11:13.978Z,1.33
2022-09-28T05:13:43.053Z,2.10
2022-09-28T05:16:10.106Z,2.22
2022-09-28T05:18:36.875Z,2.33
2022-09-28T05:21:04.695Z,1.85
2022-09-28T05:23:32.260Z,1.38
2022-09-28T05:26:02.069Z,1.60
2022-09-28T05:28:29.763Z,1.45
2022-09-28T05:31:03.943Z,1.30
2022-09-28T05:33:31.355Z,1.17
2022-09-28T05:36:01.319Z,1.15
2022-09-28T05:38:28.610Z,1.30
2022-09-28T05:40:55.516Z,1.27
2022-09-28T05:43:22.586Z,1.40
2022-09-28T05:45:54.266Z,0.90
2022-09-28T05:48:21.961Z,1.35
2022-09-28T05:50:52.599Z,1.02
2022-09-28T05:53:19.600Z,1.27
2022-09-28T05:55:46.437Z,1.38
2022-09-28T05:58:13.241Z,1.20
2022-09-28T06:00:40.192Z,1.23
2022-09-28T06:03:09.451Z,1.30
2022-09-28T06:05:37.180Z,1.00
2022-09-28T06:08:08.219Z,1.00
2022-09-28T06:10:35.113Z,1.23
2022-09-28T06:13:01.836Z,1.10
2022-09-28T06:15:30.045Z,1.13
2022-09-28T06:18:01.056Z,1.10
2022-09-28T06:20:29.659Z,1.00
2022-09-28T06:22:56.384Z,1.23
2022-09-28T06:25:23.457Z,0.80
2022-09-28T06:28:00.914Z,1.10
2022-09-28T06:30:29.178Z,1.08
2022-09-28T06:32:57.037Z,1.13
2022-09-28T06:35:25.427Z,0.98
2022-09-28T06:37:52.772Z,0.88
2022-09-28T06:40:20.124Z,1.00
2022-09-28T06:43:04.816Z,0.90
2022-09-28T06:45:31.587Z,1.02
2022-09-28T06:47:59.538Z,1.00
2022-09-28T06:50:27.182Z,1.17
2022-09-28T06:52:54.332Z,1.20
2022-09-28T06:55:21.518Z,1.08
2022-09-28T06:57:48.512Z,1.10
2022-09-28T07:00:15.536Z,1.00
2022-09-28T07:02:42.586Z,1.23
2022-09-28T07:05:11.757Z,0.90
2022-09-28T07:07:38.490Z,0.85
2022-09-28T07:10:05.754Z,1.17
2022-09-28T07:12:35.181Z,0.93
2022-09-28T07:15:02.229Z,0.90
2022-09-28T07:17:29.161Z,0.98
2022-09-28T07:20:00.266Z,1.00
2022-09-28T07:22:42.334Z,0.75
2022-09-28T07:25:10.649Z,1.08
2022-09-28T07:27:37.477Z,0.90
2022-09-28T07:30:05.987Z,0.90
2022-09-28T07:32:35.076Z,1.00
2022-09-28T07:35:08.046Z,1.00
2022-09-28T07:37:37.643Z,1.15
2022-09-28T07:40:23.904Z,1.10
2022-09-28T07:42:51.062Z,0.90
2022-09-28T07:45:17.964Z,1.02
2022-09-28T07:47:45.873Z,1.10
2022-09-28T07:50:14.374Z,1.00
2022-09-28T07:52:41.131Z,0.85
2022-09-28T07:55:08.285Z,0.98
2022-09-28T07:57:36.364Z,0.80
2022-09-28T08:00:05.976Z,1.10
2022-09-28T08:02:33.972Z,0.98
2022-09-28T08:05:01.076Z,1.05
2022-09-28T08:07:27.869Z,1.10
2022-09-28T08:09:54.648Z,0.93
2022-09-28T08:12:21.399Z,1.05
2022-09-28T08:14:48.240Z,1.08
2022-09-28T08:17:15.849Z,1.10
2022-09-28T08:20:01.133Z,1.00
2022-09-28T08:22:32.142Z,1.33
2022-09-28T08:24:58.886Z,1.17
2022-09-28T08:27:25.689Z,1.08
2022-09-28T08:29:52.454Z,1.38
2022-09-28T08:32:19.573Z,1.23
2022-09-28T08:34:46.314Z,1.10
2022-09-28T08:37:13.880Z,1.30
2022-09-28T08:39:41.134Z,0.93
2022-09-28T08:42:10.855Z,0.80
2022-09-28T08:47:41.291Z,1.30
2022-09-28T08:50:08.228Z,1.10
2022-09-28T08:52:38.243Z,1.00
2022-09-28T08:55:11.672Z,1.02
2022-09-28T08:57:45.925Z,1.08
2022-09-28T09:00:43.007Z,0.80
2022-09-28T09:03:15.665Z,1.00
2022-09-28T09:05:58.138Z,1.23
2022-09-28T09:08:27.867Z,0.95
2022-09-28T09:11:14.239Z,1.10
2022-09-28T09:14:19.318Z,1.00
2022-09-28T09:16:46.868Z,1.25
2022-09-28T09:19:17.592Z,1.10
2022-09-28T09:21:54.363Z,0.90
2022-09-28T09:24:21.561Z,1.10
2022-09-28T09:26:48.293Z,1.08
2022-09-28T09:29:29.527Z,0.95
2022-09-28T09:32:18.452Z,1.10
2022-09-28T09:34:54.169Z,1.08
2022-09-28T09:37:40.022Z,0.90
2022-09-28T09:40:26.350Z,1.10
2022-09-28T09:43:11.097Z,1.08
2022-09-28T09:46:02.872Z,1.00
2022-09-28T09:48:45.161Z,0.90
2022-09-28T09:51:49.353Z,0.80
2022-09-28T09:54:24.728Z,1.27
2022-09-28T09:57:00.792Z,1.20
2022-09-28T09:59:33.931Z,1.20
2022-09-28T10:02:18.233Z,1.10
2022-09-28T10:04:47.448Z,1.00
2022-09-28T10:07:28.935Z,0.80
2022-09-28T10:09:57.316Z,0.85
2022-09-28T10:12:24.080Z,1.02
2022-09-28T10:14:50.929Z,0.80
2022-09-28T10:17:19.744Z,0.90
2022-09-28T10:19:47.454Z,0.63
2022-09-28T10:22:17.393Z,0.77
2022-09-28T10:24:47.378Z,0.70
2022-09-28T10:27:17.044Z,0.70
2022-09-28T10:30:05.860Z,0.70
2022-09-28T10:32:45.370Z,0.80
2022-09-28T10:35:28.052Z,0.68
2022-09-28T10:38:04.623Z,0.80
2022-09-28T10:40:50.500Z,0.80
2022-09-28T10:43:21.471Z,0.50
2022-09-28T10:45:48.344Z,0.95
2022-09-28T10:48:20.924Z,0.75
2022-09-28T10:51:08.500Z,1.00
2022-09-28T10:53:37.114Z,0.60
2022-09-28T10:56:08.992Z,0.80
2022-09-28T10:58:39.555Z,0.60
2022-09-28T11:01:11.550Z,0.73
2022-09-28T11:03:58.118Z,0.80
2022-09-28T11:06:29.877Z,0.50
2022-09-28T11:09:08.260Z,0.80
2022-09-28T11:11:41.818Z,0.70
2022-09-28T11:14:42.765Z,0.70
2022-09-28T11:17:19.179Z,0.68
2022-09-28T11:19:47.576Z,0.75
2022-09-28T11:22:44.777Z,0.90
2022-09-28T11:25:18.987Z,0.80
2022-09-28T11:27:51.768Z,0.80
2022-09-28T11:30:31.336Z,0.90
2022-09-28T11:33:02.743Z,0.70
2022-09-28T11:35:50.052Z,0.70
2022-09-28T11:38:40.074Z,0.90
2022-09-28T11:41:31.534Z,0.70
2022-09-28T11:44:29.432Z,1.10
2022-09-28T11:47:26.912Z,0.90
2022-09-28T11:50:24.269Z,0.70
2022-09-28T11:53:00.526Z,0.85
2022-09-28T11:55:41.829Z,0.88
2022-09-28T11:58:30.725Z,0.80
2022-09-28T12:01:04.434Z,1.10
2022-09-28T12:03:41.611Z,0.70
2022-09-28T12:06:12.349Z,0.80
2022-09-28T12:08:46.105Z,0.80
2022-09-28T12:11:32.253Z,0.68
2022-09-28T12:14:00.441Z,0.80
2022-09-28T12:17:03.648Z,0.70
2022-09-28T12:19:21.937Z,0.68
2022-09-28T12:21:52.759Z,0.85
2022-09-28T12:24:40.619Z,0.82
2022-09-28T12:27:10.431Z,0.68
2022-09-28T12:29:57.641Z,0.70
2022-09-28T12:33:05.247Z,0.52
2022-09-28T12:35:41.281Z,1.05
2022-09-28T12:38:35.026Z,0.70
2022-09-28T12:41:19.817Z,0.70
2022-09-28T12:44:11.642Z,0.70
2022-09-28T12:47:05.552Z,0.70
2022-09-28T12:52:31.934Z,0.70
2022-09-28T12:55:39.843Z,0.90
2022-09-28T12:58:28.229Z,0.88
2022-09-28T13:01:13.787Z,0.90
2022-09-28T13:04:19.754Z,0.80
2022-09-28T13:07:01.382Z,0.70
2022-09-28T13:09:28.964Z,0.90
2022-09-28T13:11:59.550Z,0.63
2022-09-28T13:14:31.999Z,0.55
2022-09-28T13:17:10.930Z,0.93
2022-09-28T13:19:59.288Z,0.88
2022-09-28T13:22:49.789Z,1.13
2022-09-28T13:25:20.464Z,1.30
2022-09-28T13:27:53.553Z,1.48
2022-09-28T13:30:20.302Z,1.33
2022-09-28T13:32:49.409Z,1.10
2022-09-28T13:35:19.576Z,1.40
2022-09-28T13:37:46.577Z,1.48
2022-09-28T13:40:13.373Z,1.30
2022-09-28T13:42:48.045Z,1.45
2022-09-28T13:45:21.463Z,1.55
2022-09-28T13:48:16.438Z,1.67
2022-09-28T13:51:22.927Z,1.60
2022-09-28T13:54:29.178Z,1.40
2022-09-28T13:57:25.232Z,1.33
2022-09-28T14:00:37.090Z,1.45
2022-09-28T14:03:25.441Z,1.25
2022-09-28T14:06:27.010Z,1.55
2022-09-28T14:09:38.560Z,1.60
2022-09-28T14:12:44.296Z,1.52
2022-09-28T14:15:29.371Z,1.60
2022-09-28T14:17:59.332Z,1.63
2022-09-28T14:20:26.304Z,1.13
2022-09-28T14:23:05.565Z,1.30
2022-09-28T14:25:45.327Z,1.20
2022-09-28T14:28:25.586Z,1.20
2022-09-28T14:30:54.499Z,1.83
2022-09-28T14:33:21.442Z,1.30
2022-09-28T14:36:04.681Z,1.10
2022-09-28T14:38:57.045Z,1.20
2022-09-28T14:41:34.899Z,1.40
2022-09-28T14:44:08.596Z,1.38
2022-09-28T14:46:36.973Z,1.30
2022-09-28T14:49:26.829Z,1.52
2022-09-28T14:51:53.593Z,1.30
2022-09-28T14:54:21.524Z,1.60
2022-09-28T14:56:54.404Z,1.02
2022-09-28T14:59:30.299Z,1.30
2022-09-28T15:02:08.883Z,1.38
2022-09-28T15:04:39.242Z,1.48
2022-09-28T15:07:06.054Z,1.55
2022-09-28T15:09:34.324Z,1.30
2022-09-28T15:12:01.644Z,1.10
2022-09-28T15:14:32.930Z,1.33
2022-09-28T15:17:03.447Z,1.33
2022-09-28T15:19:50.163Z,1.00
2022-09-28T15:22:18.130Z,1.25
2022-09-28T15:24:46.595Z,1.25
2022-09-28T15:27:15.596Z,1.05
2022-09-28T15:29:43.370Z,1.30
2022-09-28T15:32:26.586Z,1.10
2022-09-28T15:34:54.577Z,1.10
2022-09-28T15:37:29.328Z,1.02
2022-09-28T15:39:56.348Z,1.20
2022-09-28T15:42:23.180Z,0.90
2022-09-28T15:45:30.779Z,0.80
2022-09-28T15:48:20.891Z,0.90
2022-09-28T15:51:03.822Z,1.10
2022-09-28T15:53:31.346Z,1.00
2022-09-28T15:56:05.756Z,0.85
2022-09-28T15:58:32.481Z,1.00
2022-09-28T16:01:36.657Z,0.85
2022-09-28T16:04:35.272Z,1.05
2022-09-28T16:07:11.815Z,0.93
2022-09-28T16:09:59.202Z,0.90
2022-09-28T16:12:37.933Z,0.90
2022-09-28T16:15:19.322Z,0.80
2022-09-28T16:18:01.449Z,0.90
2022-09-28T16:20:36.390Z,0.90
2022-09-28T16:23:16.056Z,0.88
2022-09-28T16:26:02.759Z,1.10
2022-09-28T16:28:38.743Z,0.90
2022-09-28T16:31:14.192Z,1.00
2022-09-28T16:33:46.660Z,0.95
2022-09-28T16:36:17.239Z,0.80
2022-09-28T16:38:47.553Z,0.80
2022-09-28T16:41:21.392Z,1.10
2022-09-28T16:43:48.140Z,0.80
2022-09-28T16:46:16.234Z,0.85
2022-09-28T16:48:49.414Z,0.95
2022-09-28T16:51:22.072Z,0.70
2022-09-28T16:54:07.880Z,1.00
2022-09-28T16:56:35.045Z,0.65
2022-09-28T16:59:04.681Z,0.93
2022-09-28T17:01:31.741Z,0.80
2022-09-28T17:03:58.675Z,0.82
2022-09-28T17:06:25.421Z,0.82
2022-09-28T17:08:52.562Z,0.70
2022-09-28T17:11:24.579Z,0.77
2022-09-28T17:13:52.188Z,0.82
2022-09-28T17:16:37.129Z,1.00
2022-09-28T17:19:22.097Z,1.00
2022-09-28T17:21:49.297Z,0.90
2022-09-28T17:24:17.478Z,1.02
2022-09-28T17:26:44.915Z,0.90
2022-09-28T17:29:15.023Z,1.23
2022-09-28T17:31:45.361Z,1.50
2022-09-28T17:34:12.900Z,2.00
2022-09-28T17:36:41.069Z,1.90
2022-09-28T17:39:14.181Z,2.53
2022-09-28T17:41:41.130Z,1.85
2022-09-28T17:44:08.171Z,2.47
2022-09-28T17:46:41.509Z,3.35
2022-09-28T17:49:09.968Z,4.47
2022-09-28T17:51:39.503Z,3.90
2022-09-28T17:54:07.026Z,3.58
2022-09-28T17:56:33.861Z,5.20
2022-09-28T17:59:03.269Z,4.07
2022-09-28T18:01:33.966Z,3.83
2022-09-28T18:04:02.166Z,3.70
2022-09-28T18:06:29.144Z,3.55
2022-09-28T18:08:55.910Z,4.00
2022-09-28T18:11:22.802Z,4.40
2022-09-28T18:13:49.557Z,4.90
2022-09-28T18:16:16.349Z,6.32
2022-09-28T18:18:43.130Z,5.60
2022-09-28T18:21:09.874Z,6.07
2022-09-28T18:23:38.109Z,6.35
2022-09-28T18:26:10.184Z,5.88
2022-09-28T18:28:36.875Z,7.35
2022-09-28T18:31:10.891Z,6.50
2022-09-28T18:33:37.851Z,7.55
2022-09-28T18:36:05.479Z,6.13
2022-09-28T18:38:32.561Z,6.70
2022-09-28T18:41:15.514Z,6.05
2022-09-28T18:43:43.265Z,6.05
2022-09-28T18:46:10.665Z,6.80
2022-09-28T18:48:38.056Z,6.40
2022-09-28T18:51:08.306Z,6.07
2022-09-28T18:53:35.404Z,6.32
2022-09-28T18:56:10.047Z,6.25
2022-09-28T18:58:37.895Z,6.15
2022-09-28T19:01:31.780Z,6.20
2022-09-28T19:04:02.120Z,5.82
2022-09-28T19:06:29.131Z,5.68
2022-09-28T19:08:56.158Z,6.30
2022-09-28T19:11:23.604Z,5.90
2022-09-28T19:13:52.146Z,6.18
2022-09-28T19:16:24.267Z,5.32
2022-09-28T19:18:53.309Z,5.85
2022-09-28T19:21:20.138Z,5.15
2022-09-28T19:23:49.841Z,5.50
2022-09-28T19:26:18.700Z,5.40
2022-09-28T19:28:45.470Z,6.13
2022-09-28T19:31:12.290Z,6.35
2022-09-28T19:33:39.360Z,6.22
2022-09-28T19:36:10.698Z,5.60
2022-09-28T19:38:38.061Z,5.85
2022-09-28T19:41:12.734Z,6.07
2022-09-28T19:43:42.269Z,5.72
2022-09-28T19:46:10.782Z,6.00
2022-09-28T19:48:40.245Z,6.10
2022-09-28T19:51:08.236Z,6.50
2022-09-28T19:53:38.410Z,7.88
2022-09-28T19:56:05.545Z,6.32
2022-09-28T19:58:34.295Z,6.30
2022-09-28T20:01:04.537Z,6.40
2022-09-28T20:03:31.273Z,6.70
2022-09-28T20:05:58.845Z,6.50
2022-09-28T20:08:26.310Z,6.28
2022-09-28T20:10:54.682Z,6.57
2022-09-28T20:13:23.773Z,5.80
2022-09-28T20:15:51.956Z,6.63
2022-09-28T20:18:19.143Z,5.75
2022-09-28T20:20:45.881Z,6.32
2022-09-28T20:23:13.331Z,6.53
2022-09-28T20:25:40.130Z,6.80
2022-09-28T20:28:06.851Z,7.10
2022-09-28T20:30:33.586Z,7.28
2022-09-28T20:33:00.344Z,6.70
2022-09-28T20:35:33.070Z,7.38
2022-09-28T20:38:07.879Z,6.93
2022-09-28T20:40:40.193Z,6.95
2022-09-28T20:43:07.042Z,7.28
2022-09-28T20:45:37.415Z,6.95
2022-09-28T20:48:06.261Z,7.22
2022-09-28T20:50:33.855Z,6.68
2022-09-28T20:53:01.203Z,7.18
2022-09-28T20:55:28.047Z,6.82
2022-09-28T20:57:55.154Z,7.13
2022-09-28T21:00:23.060Z,6.68
2022-09-28T21:02:54.860Z,6.50
2022-09-28T21:05:21.606Z,7.10
2022-09-28T21:07:48.328Z,7.10
2022-09-28T21:10:15.169Z,7.03
2022-09-28T21:12:41.944Z,6.93
2022-09-28T21:15:09.087Z,6.07
2022-09-28T21:17:35.884Z,6.80
2022-09-28T21:20:02.887Z,6.25
2022-09-28T21:22:29.849Z,6.57
2022-09-28T21:24:56.574Z,6.40
2022-09-28T21:27:24.057Z,6.07
2022-09-28T21:29:51.597Z,6.32
2022-09-28T21:32:18.371Z,5.88
2022-09-28T21:34:45.104Z,6.18
2022-09-28T21:37:11.864Z,5.63
2022-09-28T21:39:38.626Z,5.75
2022-09-28T21:42:05.403Z,5.55
2022-09-28T21:44:32.119Z,5.35
2022-09-28T21:46:58.928Z,5.18
2022-09-28T21:49:27.220Z,5.57
2022-09-28T21:51:53.945Z,5.95
2022-09-28T21:54:21.399Z,5.32
2022-09-28T21:56:48.153Z,5.25
2022-09-28T21:59:14.916Z,5.75
2022-09-28T22:01:42.807Z,5.47
2022-09-28T22:04:09.995Z,5.00
2022-09-28T22:06:36.739Z,4.85
2022-09-28T22:09:03.676Z,4.70
2022-09-28T22:11:30.457Z,4.32
2022-09-28T22:13:59.245Z,4.57
2022-09-28T22:16:29.315Z,4.90
2022-09-28T22:18:57.561Z,4.50
2022-09-28T22:21:27.929Z,4.60
2022-09-28T22:23:59.289Z,3.97
2022-09-28T22:26:26.747Z,4.63
2022-09-28T22:28:55.761Z,4.38
2022-09-28T22:31:27.797Z,4.40
2022-09-28T22:33:54.914Z,4.38
2022-09-28T22:36:21.773Z,4.05
2022-09-28T22:38:48.938Z,3.88
2022-09-28T22:41:17.269Z,3.92
2022-09-28T22:43:44.069Z,4.15
2022-09-28T22:46:15.260Z,3.50
2022-09-28T22:48:45.261Z,4.18
2022-09-28T22:51:11.986Z,3.55
2022-09-28T22:53:38.733Z,3.92
2022-09-28T22:56:06.025Z,3.55
2022-09-28T22:58:33.714Z,3.47
2022-09-28T23:01:15.066Z,3.65
2022-09-28T23:03:42.593Z,3.80
2022-09-28T23:06:09.601Z,3.47
2022-09-28T23:08:36.317Z,3.78
2022-09-28T23:11:03.464Z,3.80
2022-09-28T23:13:32.083Z,3.90
2022-09-28T23:16:02.851Z,3.08
2022-09-28T23:18:32.360Z,3.65
2022-09-28T23:21:02.190Z,3.45
2022-09-28T23:23:29.192Z,3.70
2022-09-28T23:25:56.050Z,3.50
2022-09-28T23:28:23.487Z,3.70
2022-09-28T23:30:50.277Z,3.50
2022-09-28T23:33:17.743Z,3.55
2022-09-28T23:35:44.573Z,3.47
2022-09-28T23:38:17.156Z,3.30
2022-09-28T23:40:45.617Z,4.25
2022-09-28T23:43:12.468Z,3.42
2022-09-28T23:45:39.194Z,3.33
2022-09-28T23:48:06.320Z,3.97
2022-09-28T23:50:34.172Z,3.50
2022-09-28T23:53:00.921Z,3.42
2022-09-28T23:55:27.749Z,3.90
2022-09-28T23:57:55.652Z,3.35
